sensor_id;sensor_type;location;lat;lon;timestamp;pressure;altitude;pressure_sealevel;temperature
67966;BMP280;54749;47.850;9.002;2022-07-31T00:02:07;96323.25;;;15.43
67966;BMP280;54749;47.850;9.002;2022-07-31T00:04:34;96324.44;;;15.39
67966;BMP280;54749;47.850;9.002;2022-07-31T00:07:01;96317.75;;;15.38
67966;BMP280;54749;47.850;9.002;2022-07-31T00:09:29;96315.34;;;15.37
67966;BMP280;54749;47.850;9.002;2022-07-31T00:12:16;96307.03;;;15.35
67966;BMP280;54749;47.850;9.002;2022-07-31T00:14:44;96308.13;;;15.32
67966;BMP280;54749;47.850;9.002;2022-07-31T00:17:10;96312.66;;;15.29
67966;BMP280;54749;47.850;9.002;2022-07-31T00:19:37;96306.09;;;15.26
67966;BMP280;54749;47.850;9.002;2022-07-31T00:22:04;96316.16;;;15.19
67966;BMP280;54749;47.850;9.002;2022-07-31T00:24:31;96317.38;;;15.15
67966;BMP280;54749;47.850;9.002;2022-07-31T00:26:58;96312.66;;;15.10
67966;BMP280;54749;47.850;9.002;2022-07-31T00:29:26;96304.34;;;15.08
67966;BMP280;54749;47.850;9.002;2022-07-31T00:31:52;96313.06;;;15.06
67966;BMP280;54749;47.850;9.002;2022-07-31T00:34:19;96313.19;;;15.05
67966;BMP280;54749;47.850;9.002;2022-07-31T00:36:46;96310.25;;;15.00
67966;BMP280;54749;47.850;9.002;2022-07-31T00:39:13;96310.63;;;14.95
67966;BMP280;54749;47.850;9.002;2022-07-31T00:41:42;96324.66;;;14.90
67966;BMP280;54749;47.850;9.002;2022-07-31T00:44:11;96316.22;;;14.80
67966;BMP280;54749;47.850;9.002;2022-07-31T00:46:39;96317.41;;;14.76
67966;BMP280;54749;47.850;9.002;2022-07-31T00:49:08;96312.59;;;14.73
67966;BMP280;54749;47.850;9.002;2022-07-31T00:51:39;96312.84;;;14.71
67966;BMP280;54749;47.850;9.002;2022-07-31T00:54:07;96319.78;;;14.69
67966;BMP280;54749;47.850;9.002;2022-07-31T00:56:35;96316.03;;;14.63
67966;BMP280;54749;47.850;9.002;2022-07-31T00:59:02;96311.09;;;14.62
67966;BMP280;54749;47.850;9.002;2022-07-31T01:01:29;96309.78;;;14.67
67966;BMP280;54749;47.850;9.002;2022-07-31T01:03:57;96306.84;;;14.72
67966;BMP280;54749;47.850;9.002;2022-07-31T01:06:24;96312.31;;;14.76
67966;BMP280;54749;47.850;9.002;2022-07-31T01:08:50;96300.97;;;14.80
67966;BMP280;54749;47.850;9.002;2022-07-31T01:11:25;96304.56;;;14.87
67966;BMP280;54749;47.850;9.002;2022-07-31T01:14:02;96301.53;;;14.93
67966;BMP280;54749;47.850;9.002;2022-07-31T01:16:35;96295.09;;;14.98
67966;BMP280;54749;47.850;9.002;2022-07-31T01:19:11;96301.41;;;15.04
67966;BMP280;54749;47.850;9.002;2022-07-31T01:25:27;96293.22;;;15.09
67966;BMP280;54749;47.850;9.002;2022-07-31T01:31:21;96298.19;;;15.02
67966;BMP280;54749;47.850;9.002;2022-07-31T01:34:03;96304.88;;;15.03
67966;BMP280;54749;47.850;9.002;2022-07-31T01:36:33;96296.44;;;15.02
67966;BMP280;54749;47.850;9.002;2022-07-31T01:39:03;96297.13;;;15.04
67966;BMP280;54749;47.850;9.002;2022-07-31T01:41:35;96305.84;;;15.02
67966;BMP280;54749;47.850;9.002;2022-07-31T01:44:04;96301.38;;;14.94
67966;BMP280;54749;47.850;9.002;2022-07-31T01:46:34;96302.94;;;14.86
67966;BMP280;54749;47.850;9.002;2022-07-31T01:49:10;96308.03;;;14.86
67966;BMP280;54749;47.850;9.002;2022-07-31T01:51:39;96307.38;;;14.84
67966;BMP280;54749;47.850;9.002;2022-07-31T01:54:07;96311.50;;;14.85
67966;BMP280;54749;47.850;9.002;2022-07-31T01:56:36;96315.03;;;14.84
67966;BMP280;54749;47.850;9.002;2022-07-31T01:59:04;96309.94;;;14.84
67966;BMP280;54749;47.850;9.002;2022-07-31T02:02:07;96317.16;;;14.89
67966;BMP280;54749;47.850;9.002;2022-07-31T02:04:36;96322.03;;;14.91
67966;BMP280;54749;47.850;9.002;2022-07-31T02:07:05;96322.03;;;14.91
67966;BMP280;54749;47.850;9.002;2022-07-31T02:09:34;96318.53;;;14.92
67966;BMP280;54749;47.850;9.002;2022-07-31T02:12:03;96308.38;;;14.92
67966;BMP280;54749;47.850;9.002;2022-07-31T02:14:36;96319.06;;;14.96
67966;BMP280;54749;47.850;9.002;2022-07-31T02:17:03;96316.13;;;15.00
67966;BMP280;54749;47.850;9.002;2022-07-31T02:19:55;96312.91;;;15.07
67966;BMP280;54749;47.850;9.002;2022-07-31T02:22:26;96306.50;;;15.13
67966;BMP280;54749;47.850;9.002;2022-07-31T02:24:55;96322.06;;;15.19
67966;BMP280;54749;47.850;9.002;2022-07-31T02:27:23;96320.16;;;15.21
67966;BMP280;54749;47.850;9.002;2022-07-31T02:30:14;96323.41;;;15.23
67966;BMP280;54749;47.850;9.002;2022-07-31T02:32:45;96318.03;;;15.26
67966;BMP280;54749;47.850;9.002;2022-07-31T02:35:15;96308.50;;;15.28
67966;BMP280;54749;47.850;9.002;2022-07-31T02:37:43;96314.25;;;15.30
67966;BMP280;54749;47.850;9.002;2022-07-31T02:40:13;96320.84;;;15.32
67966;BMP280;54749;47.850;9.002;2022-07-31T02:42:40;96317.09;;;15.36
67966;BMP280;54749;47.850;9.002;2022-07-31T02:45:08;96309.44;;;15.36
67966;BMP280;54749;47.850;9.002;2022-07-31T02:47:36;96309.97;;;15.40
67966;BMP280;54749;47.850;9.002;2022-07-31T02:50:07;96306.22;;;15.43
67966;BMP280;54749;47.850;9.002;2022-07-31T02:52:35;96302.72;;;15.44
67966;BMP280;54749;47.850;9.002;2022-07-31T02:55:04;96293.19;;;15.46
67966;BMP280;54749;47.850;9.002;2022-07-31T02:57:31;96305.41;;;15.52
67966;BMP280;54749;47.850;9.002;2022-07-31T02:59:58;96299.63;;;15.50
67966;BMP280;54749;47.850;9.002;2022-07-31T03:02:25;96309.97;;;15.49
67966;BMP280;54749;47.850;9.002;2022-07-31T03:05:04;96306.34;;;15.51
67966;BMP280;54749;47.850;9.002;2022-07-31T03:07:31;96307.00;;;15.53
67966;BMP280;54749;47.850;9.002;2022-07-31T03:09:58;96305.41;;;15.52
67966;BMP280;54749;47.850;9.002;2022-07-31T03:12:43;96309.56;;;15.53
67966;BMP280;54749;47.850;9.002;2022-07-31T03:15:14;96313.97;;;15.51
67966;BMP280;54749;47.850;9.002;2022-07-31T03:17:43;96309.00;;;15.50
67966;BMP280;54749;47.850;9.002;2022-07-31T03:20:16;96314.91;;;15.50
67966;BMP280;54749;47.850;9.002;2022-07-31T03:22:44;96313.31;;;15.49
67966;BMP280;54749;47.850;9.002;2022-07-31T03:25:13;96320.00;;;15.50
67966;BMP280;54749;47.850;9.002;2022-07-31T03:27:48;96313.97;;;15.51
67966;BMP280;54749;47.850;9.002;2022-07-31T03:30:21;96321.63;;;15.51
67966;BMP280;54749;47.850;9.002;2022-07-31T03:32:54;96313.97;;;15.51
67966;BMP280;54749;47.850;9.002;2022-07-31T03:35:22;96311.56;;;15.50
67966;BMP280;54749;47.850;9.002;2022-07-31T03:37:50;96316.66;;;15.50
67966;BMP280;54749;47.850;9.002;2022-07-31T03:40:17;96318.53;;;15.48
67966;BMP280;54749;47.850;9.002;2022-07-31T03:42:46;96309.16;;;15.48
67966;BMP280;54749;47.850;9.002;2022-07-31T03:45:14;96313.97;;;15.51
67966;BMP280;54749;47.850;9.002;2022-07-31T03:47:42;96312.13;;;15.53
67966;BMP280;54749;47.850;9.002;2022-07-31T03:50:10;96313.97;;;15.51
67966;BMP280;54749;47.850;9.002;2022-07-31T03:52:37;96309.16;;;15.48
67966;BMP280;54749;47.850;9.002;2022-07-31T03:55:06;96315.19;;;15.47
67966;BMP280;54749;47.850;9.002;2022-07-31T03:57:36;96316.13;;;15.37
67966;BMP280;54749;47.850;9.002;2022-07-31T04:00:04;96308.50;;;15.28
67966;BMP280;54749;47.850;9.002;2022-07-31T04:02:44;96314.41;;;15.19
67966;BMP280;54749;47.850;9.002;2022-07-31T04:05:30;96309.97;;;15.12
67966;BMP280;54749;47.850;9.002;2022-07-31T04:07:57;96308.91;;;15.05
67966;BMP280;54749;47.850;9.002;2022-07-31T04:10:25;96307.00;;;14.98
67966;BMP280;54749;47.850;9.002;2022-07-31T04:12:52;96317.75;;;14.92
67966;BMP280;54749;47.850;9.002;2022-07-31T04:15:20;96312.22;;;14.87
67966;BMP280;54749;47.850;9.002;2022-07-31T04:17:46;96314.06;;;14.85
67966;BMP280;54749;47.850;9.002;2022-07-31T04:20:17;96312.88;;;14.89
67966;BMP280;54749;47.850;9.002;2022-07-31T04:22:46;96318.28;;;14.95
67966;BMP280;54749;47.850;9.002;2022-07-31T04:25:27;96310.94;;;15.02
67966;BMP280;54749;47.850;9.002;2022-07-31T04:28:07;96319.34;;;15.11
67966;BMP280;54749;47.850;9.002;2022-07-31T04:30:34;96321.50;;;15.25
67966;BMP280;54749;47.850;9.002;2022-07-31T04:33:01;96323.25;;;15.34
67966;BMP280;54749;47.850;9.002;2022-07-31T04:35:28;96321.91;;;15.30
67966;BMP280;54749;47.850;9.002;2022-07-31T04:37:54;96323.78;;;15.28
67966;BMP280;54749;47.850;9.002;2022-07-31T04:40:22;96316.94;;;15.28
67966;BMP280;54749;47.850;9.002;2022-07-31T04:42:53;96324.16;;;15.33
67966;BMP280;54749;47.850;9.002;2022-07-31T04:45:20;96328.63;;;15.40
67966;BMP280;54749;47.850;9.002;2022-07-31T04:47:47;96325.50;;;15.46
67966;BMP280;54749;47.850;9.002;2022-07-31T04:50:14;96330.88;;;15.52
67966;BMP280;54749;47.850;9.002;2022-07-31T04:52:54;96329.13;;;15.62
67966;BMP280;54749;47.850;9.002;2022-07-31T04:55:22;96335.28;;;15.69
67966;BMP280;54749;47.850;9.002;2022-07-31T04:57:49;96331.38;;;15.83
67966;BMP280;54749;47.850;9.002;2022-07-31T05:00:16;96326.91;;;16.04
67966;BMP280;54749;47.850;9.002;2022-07-31T05:02:43;96326.66;;;16.33
67966;BMP280;54749;47.850;9.002;2022-07-31T05:05:10;96324.97;;;16.50
67966;BMP280;54749;47.850;9.002;2022-07-31T05:07:40;96326.59;;;16.51
67966;BMP280;54749;47.850;9.002;2022-07-31T05:10:18;96332.25;;;16.46
67966;BMP280;54749;47.850;9.002;2022-07-31T05:13:04;96327.53;;;16.50
67966;BMP280;54749;47.850;9.002;2022-07-31T05:15:32;96325.84;;;16.94
67966;BMP280;54749;47.850;9.002;2022-07-31T05:17:59;96323.72;;;17.24
67966;BMP280;54749;47.850;9.002;2022-07-31T05:20:44;96321.97;;;17.58
67966;BMP280;54749;47.850;9.002;2022-07-31T05:23:31;96316.25;;;17.81
67966;BMP280;54749;47.850;9.002;2022-07-31T05:26:16;96313.56;;;18.07
67966;BMP280;54749;47.850;9.002;2022-07-31T05:28:45;96313.88;;;18.37
67966;BMP280;54749;47.850;9.002;2022-07-31T05:31:12;96304.22;;;18.64
67966;BMP280;54749;47.850;9.002;2022-07-31T05:33:39;96296.38;;;19.06
67966;BMP280;54749;47.850;9.002;2022-07-31T05:36:06;96296.75;;;19.57
67966;BMP280;54749;47.850;9.002;2022-07-31T05:38:33;96299.03;;;20.44
67966;BMP280;54749;47.850;9.002;2022-07-31T05:41:26;96298.81;;;20.91
67966;BMP280;54749;47.850;9.002;2022-07-31T05:43:58;96295.50;;;20.83
67966;BMP280;54749;47.850;9.002;2022-07-31T05:46:29;96306.00;;;20.73
67966;BMP280;54749;47.850;9.002;2022-07-31T05:48:56;96310.00;;;20.76
67966;BMP280;54749;47.850;9.002;2022-07-31T05:51:23;96304.69;;;21.07
67966;BMP280;54749;47.850;9.002;2022-07-31T05:53:50;96310.22;;;21.26
67966;BMP280;54749;47.850;9.002;2022-07-31T05:56:46;96306.06;;;22.05
67966;BMP280;54749;47.850;9.002;2022-07-31T05:59:16;96297.59;;;23.44
67966;BMP280;54749;47.850;9.002;2022-07-31T06:01:43;96294.66;;;24.74
67966;BMP280;54749;47.850;9.002;2022-07-31T06:04:10;96299.00;;;26.09
67966;BMP280;54749;47.850;9.002;2022-07-31T06:06:40;96286.63;;;26.98
67966;BMP280;54749;47.850;9.002;2022-07-31T06:09:07;96293.28;;;28.21
67966;BMP280;54749;47.850;9.002;2022-07-31T06:11:37;96292.81;;;28.30
67966;BMP280;54749;47.850;9.002;2022-07-31T06:14:04;96296.06;;;28.85
67966;BMP280;54749;47.850;9.002;2022-07-31T06:16:56;96299.50;;;30.00
67966;BMP280;54749;47.850;9.002;2022-07-31T06:19:24;96285.56;;;30.95
67966;BMP280;54749;47.850;9.002;2022-07-31T06:21:51;96286.41;;;31.89
67966;BMP280;54749;47.850;9.002;2022-07-31T06:24:29;96282.13;;;32.84
67966;BMP280;54749;47.850;9.002;2022-07-31T06:27:00;96280.69;;;32.93
67966;BMP280;54749;47.850;9.002;2022-07-31T06:29:30;96293.53;;;31.66
67966;BMP280;54749;47.850;9.002;2022-07-31T06:32:10;96294.25;;;31.62
67966;BMP280;54749;47.850;9.002;2022-07-31T06:34:38;96298.50;;;31.51
67966;BMP280;54749;47.850;9.002;2022-07-31T06:37:05;96299.25;;;32.22
67966;BMP280;54749;47.850;9.002;2022-07-31T06:39:33;96294.88;;;33.80
67966;BMP280;54749;47.850;9.002;2022-07-31T06:42:46;96296.16;;;34.09
67966;BMP280;54749;47.850;9.002;2022-07-31T06:45:32;96287.78;;;34.78
67966;BMP280;54749;47.850;9.002;2022-07-31T06:48:35;96281.03;;;35.56
67966;BMP280;54749;47.850;9.002;2022-07-31T06:51:07;96279.34;;;36.15
67966;BMP280;54749;47.850;9.002;2022-07-31T06:53:54;96278.97;;;36.89
67966;BMP280;54749;47.850;9.002;2022-07-31T06:56:21;96282.47;;;37.94
67966;BMP280;54749;47.850;9.002;2022-07-31T06:58:48;96281.09;;;38.94
67966;BMP280;54749;47.850;9.002;2022-07-31T07:01:16;96277.88;;;39.43
67966;BMP280;54749;47.850;9.002;2022-07-31T07:03:43;96288.38;;;38.51
67966;BMP280;54749;47.850;9.002;2022-07-31T07:06:09;96293.41;;;37.73
67966;BMP280;54749;47.850;9.002;2022-07-31T07:08:37;96294.59;;;36.62
67966;BMP280;54749;47.850;9.002;2022-07-31T07:11:04;96295.66;;;35.18
67966;BMP280;54749;47.850;9.002;2022-07-31T07:13:37;96309.44;;;34.23
67966;BMP280;54749;47.850;9.002;2022-07-31T07:16:14;96306.16;;;34.12
67966;BMP280;54749;47.850;9.002;2022-07-31T07:18:42;96299.53;;;34.30
67966;BMP280;54749;47.850;9.002;2022-07-31T07:21:09;96291.00;;;34.85
67966;BMP280;54749;47.850;9.002;2022-07-31T07:23:37;96308.91;;;34.26
67966;BMP280;54749;47.850;9.002;2022-07-31T07:26:25;96299.84;;;33.14
67966;BMP280;54749;47.850;9.002;2022-07-31T07:28:53;96296.56;;;33.44
67966;BMP280;54749;47.850;9.002;2022-07-31T07:31:19;96290.63;;;33.12
67966;BMP280;54749;47.850;9.002;2022-07-31T07:33:46;96296.31;;;32.67
67966;BMP280;54749;47.850;9.002;2022-07-31T07:36:19;96297.44;;;32.92
67966;BMP280;54749;47.850;9.002;2022-07-31T07:38:52;96292.13;;;33.71
67966;BMP280;54749;47.850;9.002;2022-07-31T07:41:22;96293.91;;;34.22
67966;BMP280;54749;47.850;9.002;2022-07-31T07:43:49;96279.38;;;34.76
67966;BMP280;54749;47.850;9.002;2022-07-31T07:46:23;96278.06;;;35.28
67966;BMP280;54749;47.850;9.002;2022-07-31T07:48:55;96275.59;;;35.87
67966;BMP280;54749;47.850;9.002;2022-07-31T07:51:44;96279.56;;;36.43
67966;BMP280;54749;47.850;9.002;2022-07-31T07:54:38;96267.69;;;36.74
67966;BMP280;54749;47.850;9.002;2022-07-31T07:57:44;96262.47;;;36.35
67966;BMP280;54749;47.850;9.002;2022-07-31T08:00:31;96255.63;;;37.77
67966;BMP280;54749;47.850;9.002;2022-07-31T08:03:01;96254.69;;;38.89
67966;BMP280;54749;47.850;9.002;2022-07-31T08:05:48;96256.44;;;39.62
67966;BMP280;54749;47.850;9.002;2022-07-31T08:08:15;96243.56;;;40.72
67966;BMP280;54749;47.850;9.002;2022-07-31T08:11:02;96249.25;;;41.44
67966;BMP280;54749;47.850;9.002;2022-07-31T08:13:49;96248.38;;;42.18
67966;BMP280;54749;47.850;9.002;2022-07-31T08:16:35;96243.03;;;41.96
67966;BMP280;54749;47.850;9.002;2022-07-31T08:19:02;96242.06;;;41.93
67966;BMP280;54749;47.850;9.002;2022-07-31T08:21:30;96241.41;;;41.40
67966;BMP280;54749;47.850;9.002;2022-07-31T08:24:00;96249.19;;;42.05
67966;BMP280;54749;47.850;9.002;2022-07-31T08:26:27;96247.94;;;42.03
67966;BMP280;54749;47.850;9.002;2022-07-31T08:29:14;96241.22;;;42.48
67966;BMP280;54749;47.850;9.002;2022-07-31T08:31:44;96242.00;;;42.49
67966;BMP280;54749;47.850;9.002;2022-07-31T08:34:51;96247.09;;;42.58
67966;BMP280;54749;47.850;9.002;2022-07-31T08:37:18;96250.63;;;42.24
67966;BMP280;54749;47.850;9.002;2022-07-31T08:40:05;96233.28;;;43.16
67966;BMP280;54749;47.850;9.002;2022-07-31T08:42:32;96235.63;;;43.63
67966;BMP280;54749;47.850;9.002;2022-07-31T08:45:00;96235.63;;;44.13
67966;BMP280;54749;47.850;9.002;2022-07-31T08:47:31;96244.25;;;43.85
67966;BMP280;54749;47.850;9.002;2022-07-31T08:50:05;96242.06;;;44.04
67966;BMP280;54749;47.850;9.002;2022-07-31T08:52:34;96236.72;;;44.37
67966;BMP280;54749;47.850;9.002;2022-07-31T08:55:28;96226.28;;;45.05
67966;BMP280;54749;47.850;9.002;2022-07-31T08:58:18;96235.16;;;44.19
67966;BMP280;54749;47.850;9.002;2022-07-31T09:00:46;96232.97;;;44.05
67966;BMP280;54749;47.850;9.002;2022-07-31T09:03:14;96232.00;;;43.76
67966;BMP280;54749;47.850;9.002;2022-07-31T09:05:50;96237.19;;;44.14
67966;BMP280;54749;47.850;9.002;2022-07-31T09:08:17;96223.16;;;44.58
67966;BMP280;54749;47.850;9.002;2022-07-31T09:10:47;96217.03;;;45.11
67966;BMP280;54749;47.850;9.002;2022-07-31T09:13:17;96228.34;;;45.08
67966;BMP280;54749;47.850;9.002;2022-07-31T09:15:45;96219.41;;;45.32
67966;BMP280;54749;47.850;9.002;2022-07-31T09:18:16;96225.84;;;45.59
67966;BMP280;54749;47.850;9.002;2022-07-31T09:21:05;96226.81;;;45.75
67966;BMP280;54749;47.850;9.002;2022-07-31T09:23:43;96224.19;;;46.15
67966;BMP280;54749;47.850;9.002;2022-07-31T09:26:11;96225.91;;;46.11
67966;BMP280;54749;47.850;9.002;2022-07-31T09:28:40;96221.16;;;45.56
67966;BMP280;54749;47.850;9.002;2022-07-31T09:31:09;96217.00;;;45.67
67966;BMP280;54749;47.850;9.002;2022-07-31T09:33:57;96216.44;;;45.73
67966;BMP280;54749;47.850;9.002;2022-07-31T09:36:53;96214.94;;;46.24
67966;BMP280;54749;47.850;9.002;2022-07-31T09:39:39;96215.69;;;45.53
67966;BMP280;54749;47.850;9.002;2022-07-31T09:42:42;96204.06;;;45.69
67966;BMP280;54749;47.850;9.002;2022-07-31T09:45:21;96207.34;;;45.26
67966;BMP280;54749;47.850;9.002;2022-07-31T09:48:04;96196.22;;;45.24
67966;BMP280;54749;47.850;9.002;2022-07-31T09:50:33;96203.22;;;45.97
67966;BMP280;54749;47.850;9.002;2022-07-31T09:53:00;96195.59;;;46.39
67966;BMP280;54749;47.850;9.002;2022-07-31T09:55:30;96194.91;;;46.85
67966;BMP280;54749;47.850;9.002;2022-07-31T09:57:58;96192.81;;;47.02
67966;BMP280;54749;47.850;9.002;2022-07-31T10:00:35;96196.00;;;46.72
67966;BMP280;54749;47.850;9.002;2022-07-31T10:03:03;96186.72;;;46.15
67966;BMP280;54749;47.850;9.002;2022-07-31T10:05:32;96195.63;;;44.05
67966;BMP280;54749;47.850;9.002;2022-07-31T10:08:01;96202.38;;;41.01
67966;BMP280;54749;47.850;9.002;2022-07-31T10:11:06;96206.25;;;39.70
67966;BMP280;54749;47.850;9.002;2022-07-31T10:13:52;96193.06;;;40.90
67966;BMP280;54749;47.850;9.002;2022-07-31T10:16:25;96193.34;;;42.18
67966;BMP280;54749;47.850;9.002;2022-07-31T10:19:12;96190.72;;;42.27
67966;BMP280;54749;47.850;9.002;2022-07-31T10:22:02;96190.09;;;40.91
67966;BMP280;54749;47.850;9.002;2022-07-31T10:24:39;96184.19;;;39.44
67966;BMP280;54749;47.850;9.002;2022-07-31T10:27:09;96200.84;;;37.60
67966;BMP280;54749;47.850;9.002;2022-07-31T10:29:38;96191.53;;;37.30
67966;BMP280;54749;47.850;9.002;2022-07-31T10:32:07;96190.97;;;36.76
67966;BMP280;54749;47.850;9.002;2022-07-31T10:34:40;96184.72;;;36.47
67966;BMP280;54749;47.850;9.002;2022-07-31T10:38:02;96189.78;;;37.11
67966;BMP280;54749;47.850;9.002;2022-07-31T10:41:19;96178.66;;;36.42
67966;BMP280;54749;47.850;9.002;2022-07-31T10:43:55;96177.66;;;35.99
67966;BMP280;54749;47.850;9.002;2022-07-31T10:46:58;96183.09;;;35.15
67966;BMP280;54749;47.850;9.002;2022-07-31T10:52:31;96162.22;;;38.34
67966;BMP280;54749;47.850;9.002;2022-07-31T10:55:15;96156.53;;;39.85
67966;BMP280;54749;47.850;9.002;2022-07-31T10:57:52;96146.75;;;40.30
67966;BMP280;54749;47.850;9.002;2022-07-31T11:00:41;96154.59;;;40.35
67966;BMP280;54749;47.850;9.002;2022-07-31T11:03:22;96153.81;;;39.18
67966;BMP280;54749;47.850;9.002;2022-07-31T11:06:07;96146.88;;;38.58
67966;BMP280;54749;47.850;9.002;2022-07-31T11:08:54;96155.19;;;39.16
67966;BMP280;54749;47.850;9.002;2022-07-31T11:11:39;96151.25;;;38.22
67966;BMP280;54749;47.850;9.002;2022-07-31T11:14:33;96153.47;;;37.83
67966;BMP280;54749;47.850;9.002;2022-07-31T11:17:31;96165.41;;;36.71
67966;BMP280;54749;47.850;9.002;2022-07-31T11:20:29;96150.72;;;37.17
67966;BMP280;54749;47.850;9.002;2022-07-31T11:23:04;96147.56;;;37.16
67966;BMP280;54749;47.850;9.002;2022-07-31T11:25:33;96146.69;;;36.73
67966;BMP280;54749;47.850;9.002;2022-07-31T11:28:16;96152.94;;;35.81
67966;BMP280;54749;47.850;9.002;2022-07-31T11:31:05;96146.50;;;35.09
67966;BMP280;54749;47.850;9.002;2022-07-31T11:33:40;96135.25;;;35.33
67966;BMP280;54749;47.850;9.002;2022-07-31T11:36:20;96133.97;;;35.35
67966;BMP280;54749;47.850;9.002;2022-07-31T11:38:49;96120.28;;;35.23
67966;BMP280;54749;47.850;9.002;2022-07-31T11:41:17;96127.00;;;34.85
67966;BMP280;54749;47.850;9.002;2022-07-31T11:43:50;96118.47;;;34.54
67966;BMP280;54749;47.850;9.002;2022-07-31T11:46:28;96122.22;;;34.73
67966;BMP280;54749;47.850;9.002;2022-07-31T11:48:56;96117.81;;;34.83
67966;BMP280;54749;47.850;9.002;2022-07-31T11:51:25;96121.75;;;33.85
67966;BMP280;54749;47.850;9.002;2022-07-31T11:53:53;96124.78;;;33.78
67966;BMP280;54749;47.850;9.002;2022-07-31T11:56:25;96111.53;;;33.89
67966;BMP280;54749;47.850;9.002;2022-07-31T11:58:55;96100.31;;;33.98
67966;BMP280;54749;47.850;9.002;2022-07-31T12:01:27;96096.59;;;33.89
67966;BMP280;54749;47.850;9.002;2022-07-31T12:03:56;96098.56;;;33.78
67966;BMP280;54749;47.850;9.002;2022-07-31T12:06:34;96089.75;;;33.88
67966;BMP280;54749;47.850;9.002;2022-07-31T12:09:02;96097.66;;;33.93
67966;BMP280;54749;47.850;9.002;2022-07-31T12:11:29;96088.13;;;33.82
67966;BMP280;54749;47.850;9.002;2022-07-31T12:13:56;96096.72;;;33.78
67966;BMP280;54749;47.850;9.002;2022-07-31T12:16:25;96105.41;;;33.78
67966;BMP280;54749;47.850;9.002;2022-07-31T12:18:53;96104.56;;;33.38
67966;BMP280;54749;47.850;9.002;2022-07-31T12:21:30;96098.13;;;33.24
67966;BMP280;54749;47.850;9.002;2022-07-31T12:23:59;96095.00;;;33.27
67966;BMP280;54749;47.850;9.002;2022-07-31T12:26:28;96089.50;;;32.98
67966;BMP280;54749;47.850;9.002;2022-07-31T12:29:04;96096.84;;;32.54
67966;BMP280;54749;47.850;9.002;2022-07-31T12:37:15;96084.91;;;32.63
67966;BMP280;54749;47.850;9.002;2022-07-31T12:42:31;96073.69;;;32.41
67966;BMP280;54749;47.850;9.002;2022-07-31T12:45:06;96079.00;;;32.09
67966;BMP280;54749;47.850;9.002;2022-07-31T12:47:46;96082.63;;;31.87
67966;BMP280;54749;47.850;9.002;2022-07-31T12:50:19;96076.44;;;31.77
67966;BMP280;54749;47.850;9.002;2022-07-31T12:52:46;96075.31;;;31.73
67966;BMP280;54749;47.850;9.002;2022-07-31T12:55:13;96072.47;;;31.91
67966;BMP280;54749;47.850;9.002;2022-07-31T12:57:43;96070.50;;;32.39
67966;BMP280;54749;47.850;9.002;2022-07-31T13:00:19;96070.69;;;32.54
67966;BMP280;54749;47.850;9.002;2022-07-31T13:02:49;96059.03;;;32.92
67966;BMP280;54749;47.850;9.002;2022-07-31T13:05:16;96060.13;;;32.96
67966;BMP280;54749;47.850;9.002;2022-07-31T13:07:43;96068.59;;;32.82
67966;BMP280;54749;47.850;9.002;2022-07-31T13:10:10;96061.81;;;33.07
67966;BMP280;54749;47.850;9.002;2022-07-31T13:12:48;96055.59;;;33.17
67966;BMP280;54749;47.850;9.002;2022-07-31T13:15:19;96058.53;;;32.95
67966;BMP280;54749;47.850;9.002;2022-07-31T13:17:49;96063.19;;;32.88
67966;BMP280;54749;47.850;9.002;2022-07-31T13:20:17;96055.09;;;32.64
67966;BMP280;54749;47.850;9.002;2022-07-31T13:22:44;96056.50;;;32.50
67966;BMP280;54749;47.850;9.002;2022-07-31T13:25:11;96049.97;;;32.78
67966;BMP280;54749;47.850;9.002;2022-07-31T13:27:38;96045.19;;;32.96
67966;BMP280;54749;47.850;9.002;2022-07-31T13:30:08;96044.00;;;33.08
67966;BMP280;54749;47.850;9.002;2022-07-31T13:32:35;96039.34;;;32.85
67966;BMP280;54749;47.850;9.002;2022-07-31T13:35:03;96041.88;;;32.54
67966;BMP280;54749;47.850;9.002;2022-07-31T13:37:51;96032.31;;;32.43
67966;BMP280;54749;47.850;9.002;2022-07-31T13:40:19;96033.25;;;32.12
67966;BMP280;54749;47.850;9.002;2022-07-31T13:43:06;96032.19;;;32.13
67966;BMP280;54749;47.850;9.002;2022-07-31T13:45:33;96024.66;;;32.16
67966;BMP280;54749;47.850;9.002;2022-07-31T13:48:00;96026.47;;;32.57
67966;BMP280;54749;47.850;9.002;2022-07-31T13:50:34;96021.66;;;32.75
67966;BMP280;54749;47.850;9.002;2022-07-31T13:53:02;96020.69;;;32.81
67966;BMP280;54749;47.850;9.002;2022-07-31T13:55:30;96025.41;;;32.84
67966;BMP280;54749;47.850;9.002;2022-07-31T13:57:57;96011.59;;;32.63
67966;BMP280;54749;47.850;9.002;2022-07-31T14:00:28;96022.34;;;32.19
67966;BMP280;54749;47.850;9.002;2022-07-31T14:02:55;96033.91;;;32.02
67966;BMP280;54749;47.850;9.002;2022-07-31T14:05:24;96022.63;;;31.81
67966;BMP280;54749;47.850;9.002;2022-07-31T14:07:52;96025.50;;;32.01
67966;BMP280;54749;47.850;9.002;2022-07-31T14:10:21;96024.34;;;32.13
67966;BMP280;54749;47.850;9.002;2022-07-31T14:12:48;96019.34;;;32.32
67966;BMP280;54749;47.850;9.002;2022-07-31T14:15:16;96009.25;;;32.40
67966;BMP280;54749;47.850;9.002;2022-07-31T14:17:44;96012.28;;;32.33
67966;BMP280;54749;47.850;9.002;2022-07-31T14:20:11;96007.91;;;32.17
67966;BMP280;54749;47.850;9.002;2022-07-31T14:22:38;96003.81;;;31.84
67966;BMP280;54749;47.850;9.002;2022-07-31T14:25:05;96000.97;;;31.85
67966;BMP280;54749;47.850;9.002;2022-07-31T14:27:35;96000.22;;;31.69
67966;BMP280;54749;47.850;9.002;2022-07-31T14:30:07;95995.03;;;31.53
67966;BMP280;54749;47.850;9.002;2022-07-31T14:32:35;95998.28;;;31.28
67966;BMP280;54749;47.850;9.002;2022-07-31T14:35:03;95999.81;;;30.92
67966;BMP280;54749;47.850;9.002;2022-07-31T14:37:34;95992.03;;;30.64
67966;BMP280;54749;47.850;9.002;2022-07-31T14:40:02;95985.03;;;30.54
67966;BMP280;54749;47.850;9.002;2022-07-31T14:42:29;95989.94;;;30.66
67966;BMP280;54749;47.850;9.002;2022-07-31T14:44:56;95978.66;;;30.77
67966;BMP280;54749;47.850;9.002;2022-07-31T14:47:25;95984.03;;;30.71
67966;BMP280;54749;47.850;9.002;2022-07-31T14:49:52;95972.38;;;30.62
67966;BMP280;54749;47.850;9.002;2022-07-31T14:52:36;95977.03;;;30.44
67966;BMP280;54749;47.850;9.002;2022-07-31T14:55:03;95984.84;;;30.44
67966;BMP280;54749;47.850;9.002;2022-07-31T14:57:31;95976.00;;;30.45
67966;BMP280;54749;47.850;9.002;2022-07-31T14:59:59;95984.69;;;30.34
67966;BMP280;54749;47.850;9.002;2022-07-31T15:02:26;95981.72;;;30.31